Time;durP1;ratioP1;P1;durP2;ratioP2;P2;SDS_P1;SDS_P2;PMS_P1;PMS_P2;Temp;Humidity;BMP_temperature;BMP_pressure;BME280_temperature;BME280_humidity;BME280_pressure;Samples;Min_cycle;Max_cycle;Signal;HPM_P1;HPM_P2
2022/11/22 00:01:58;;;;;;;;;;;;;;;;;;4439790;32;20183;-71
2022/11/22 00:04:23;;;;;;;20.58;11.35;;;;;;;;;;4451668;32;19999;-71
2022/11/22 00:06:48;;;;;;;24.15;11.35;;;;;;;;;;4438871;32;20033;-70
2022/11/22 00:09:14;;;;;;;;;;;;;;;;;;4436681;32;20097;-71
2022/11/22 00:11:39;;;;;;;19.87;12.30;;;;;;;;;;4443389;32;19936;-70
2022/11/22 00:14:04;;;;;;;;;;;;;;;;;;4453799;32;20158;-71
2022/11/22 00:16:29;;;;;;;24.05;12.30;;;;;;;;;;4437709;32;19985;-70
2022/11/22 00:18:54;;;;;;;24.70;12.95;;;;;;;;;;4437989;32;20033;-71
2022/11/22 00:21:19;;;;;;;;;;;;;;;;;;4454330;32;20030;-71
2022/11/22 00:23:44;;;;;;;21.92;12.10;;;;;;;;;;4452088;32;19988;-71
2022/11/22 00:26:10;;;;;;;;;;;;;;;;;;4453184;32;20120;-71
2022/11/22 00:28:36;;;;;;;28.40;14.13;;;;;;;;;;4453701;32;19985;-71
2022/11/22 00:31:01;;;;;;;;;;;;;;;;;;4454474;32;20049;-71
2022/11/22 00:33:26;;;;;;;22.73;12.48;;;;;;;;;;4451161;32;19943;-71
2022/11/22 00:35:51;;;;;;;23.75;12.90;;;;;;;;;;4454007;32;20025;-71
2022/11/22 00:38:17;;;;;;;;;;;;;;;;;;4451918;32;20060;-70
2022/11/22 00:40:42;;;;;;;19.67;11.98;;;;;;;;;;4452010;32;20314;-71
2022/11/22 00:43:07;;;;;;;;;;;;;;;;;;4439824;32;20110;-71
2022/11/22 00:45:32;;;;;;;19.73;11.90;;;;;;;;;;4453037;32;19951;-71
2022/11/22 00:47:57;;;;;;;;;;;;;;;;;;4450700;32;20520;-71
2022/11/22 00:50:22;;;;;;;23.38;12.15;;;;;;;;;;4453785;32;19956;-71
2022/11/22 00:52:47;;;;;;;;;;;;;;;;;;4452114;32;20109;-71
2022/11/22 00:55:13;;;;;;;22.42;12.25;;;;;;;;;;4452910;32;19951;-71
2022/11/22 00:57:38;;;;;;;;;;;;;;;;;;4453686;32;20145;-71
2022/11/22 01:00:05;;;;;;;19.73;9.88;;;;;;;;;;4452457;32;20271;-71
2022/11/22 01:02:30;;;;;;;22.83;11.27;;;;;;;;;;4448509;32;20053;-71
2022/11/22 01:04:55;;;;;;;;;;;;;;;;;;4436763;32;20021;-71
2022/11/22 01:07:20;;;;;;;24.40;9.18;;;;;;;;;;4437722;32;20282;-71
2022/11/22 01:09:45;;;;;;;17.80;8.78;;;;;;;;;;4434759;32;20052;-71
2022/11/22 01:12:10;;;;;;;;;;;;;;;;;;4437952;32;20037;-71
2022/11/22 01:14:36;;;;;;;21.00;7.72;;;;;;;;;;4435978;32;19933;-71
2022/11/22 01:17:01;;;;;;;;;;;;;;;;;;4422053;32;20038;-71
2022/11/22 01:19:26;;;;;;;18.73;9.80;;;;;;;;;;4437540;32;20263;-71
2022/11/22 01:21:51;;;;;;;;;;;;;;;;;;4436057;32;20059;-71
2022/11/22 01:24:16;;;;;;;13.73;7.25;;;;;;;;;;4434883;32;20505;-71
2022/11/22 01:26:41;;;;;;;;;;;;;;;;;;4438175;32;20092;-71
2022/11/22 01:29:07;;;;;;;18.48;6.75;;;;;;;;;;4437353;32;19997;-71
2022/11/22 01:31:32;;;;;;;17.67;6.93;;;;;;;;;;4437289;32;20053;-72
2022/11/22 01:33:57;;;;;;;;;;;;;;;;;;4447068;32;20083;-72
2022/11/22 01:36:23;;;;;;;20.33;7.12;;;;;;;;;;4451460;32;19933;-71
2022/11/22 01:38:48;;;;;;;;;;;;;;;;;;4439084;26;20038;-70
2022/11/22 01:41:13;;;;;;;20.05;9.45;;;;;;;;;;4405397;32;20006;-72
2022/11/22 01:43:38;;;;;;;16.87;8.02;;;;;;;;;;4409578;32;20033;-72
2022/11/22 01:46:03;;;;;;;;;;;;;;;;;;4421635;32;20438;-72
2022/11/22 01:48:49;;;;;;;21.73;7.47;;;;;;;;;;4420117;32;19941;-71
2022/11/22 01:51:17;;;;;;;17.33;6.60;;;;;;;;;;4418933;32;20476;-71
2022/11/22 01:53:42;;;;;;;20.40;7.97;;;;;;;;;;4420702;32;20487;-71
2022/11/22 01:56:07;;;;;;;;;;;;;;;;;;4419825;32;20018;-72
2022/11/22 01:58:34;;;;;;;18.18;6.92;;;;;;;;;;4420716;32;20010;-72
2022/11/22 02:01:00;;;;;;;21.15;8.25;;;;;;;;;;4421783;32;20049;-72
2022/11/22 02:03:25;;;;;;;;;;;;;;;;;;4420641;32;20022;-72
2022/11/22 02:05:50;;;;;;;24.20;7.22;;;;;;;;;;4427238;32;19936;-72
2022/11/22 02:08:15;;;;;;;;;;;;;;;;;;4434978;32;20045;-72
2022/11/22 02:10:43;;;;;;;13.23;7.65;;;;;;;;;;4430549;32;20019;-72
2022/11/22 02:13:09;;;;;;;18.92;7.30;;;;;;;;;;4420478;32;20212;-71
2022/11/22 02:15:34;;;;;;;;;;;;;;;;;;4421321;32;20359;-72
2022/11/22 02:17:59;;;;;;;20.58;6.78;;;;;;;;;;4419088;32;19951;-72
2022/11/22 02:20:24;;;;;;;;;;;;;;;;;;4421305;32;20094;-72
2022/11/22 02:22:49;;;;;;;32.95;7.32;;;;;;;;;;4420045;32;19960;-72
2022/11/22 02:25:20;;;;;;;27.60;9.32;;;;;;;;;;4420256;32;20026;-71
2022/11/22 02:27:46;;;;;;;22.40;7.95;;;;;;;;;;4419769;32;20030;-72
2022/11/22 02:30:11;;;;;;;;;;;;;;;;;;4420085;32;20548;-72
2022/11/22 02:32:37;;;;;;;20.98;6.72;;;;;;;;;;4419770;32;19933;-72
2022/11/22 02:35:02;;;;;;;;;;;;;;;;;;4419698;32;20109;-73
2022/11/22 02:37:28;;;;;;;28.12;6.55;;;;;;;;;;4420109;32;19996;-73
2022/11/22 02:40:07;;;;;;;25.75;7.37;;;;;;;;;;4420819;32;20176;-72
2022/11/22 02:42:32;;;;;;;29.40;7.40;;;;;;;;;;4420409;32;20052;-72
2022/11/22 02:44:57;;;;;;;;;;;;;;;;;;4418905;32;20026;-71
2022/11/22 02:47:22;;;;;;;26.92;7.05;;;;;;;;;;4419734;32;19937;-72
2022/11/22 02:49:48;;;;;;;25.58;6.15;;;;;;;;;;4420829;32;20079;-71
2022/11/22 02:52:13;;;;;;;;;;;;;;;;;;4421331;32;20426;-71
2022/11/22 02:54:38;;;;;;;24.50;5.90;;;;;;;;;;4418762;32;19957;-71
2022/11/22 02:57:03;;;;;;;;;;;;;;;;;;4419276;32;20191;-73
2022/11/22 02:59:28;;;;;;;23.77;4.53;;;;;;;;;;4418649;32;19945;-72
2022/11/22 03:01:53;;;;;;;;;;;;;;;;;;4420287;32;20196;-71
2022/11/22 03:04:24;;;;;;;12.85;3.75;;;;;;;;;;4420286;32;19975;-71
2022/11/22 03:07:00;;;;;;;30.75;5.07;;;;;;;;;;4434272;32;20133;-71
2022/11/22 03:09:26;;;;;;;23.58;4.12;;;;;;;;;;4423718;32;20045;-71
2022/11/22 03:11:51;;;;;;;;;;;;;;;;;;4422716;32;20026;-72
2022/11/22 03:14:16;;;;;;;21.35;4.65;;;;;;;;;;4422085;32;19937;-72
2022/11/22 03:16:42;;;;;;;26.12;5.40;;;;;;;;;;4422386;32;20038;-71
2022/11/22 03:19:07;;;;;;;;;;;;;;;;;;4423479;32;20412;-71
2022/11/22 03:21:32;;;;;;;31.62;5.35;;;;;;;;;;4422204;32;19976;-71
2022/11/22 03:23:57;;;;;;;;;;;;;;;;;;4423821;32;20021;-71
2022/11/22 03:26:22;;;;;;;19.98;4.87;;;;;;;;;;4420898;32;20007;-72
2022/11/22 03:28:48;;;;;;;;;;;;;;;;;;4422212;32;20018;-72
2022/11/22 03:31:13;;;;;;;19.02;3.28;;;;;;;;;;4421592;32;19982;-72
2022/11/22 03:33:38;;;;;;;;;;;;;;;;;;4424013;32;20018;-72
2022/11/22 03:36:03;;;;;;;19.17;5.12;;;;;;;;;;4422162;32;20388;-72
2022/11/22 03:38:28;;;;;;;;;;;;;;;;;;4422817;32;20047;-71
2022/11/22 03:40:53;;;;;;;28.12;4.07;;;;;;;;;;4421958;32;20464;-72
2022/11/22 03:43:19;;;;;;;;;;;;;;;;;;4434168;32;20130;-72
2022/11/22 03:45:45;;;;;;;13.70;3.14;;;;;;;;;;4422550;32;19970;-72
2022/11/22 03:48:10;;;;;;;;;;;;;;;;;;4422627;32;20353;-71
2022/11/22 03:50:35;;;;;;;17.83;4.70;;;;;;;;;;4421928;32;19938;-71
2022/11/22 03:53:00;;;;;;;14.77;3.90;;;;;;;;;;4422508;32;20068;-71
2022/11/22 03:55:25;;;;;;;;;;;;;;;;;;4422729;32;20364;-71
2022/11/22 03:57:50;;;;;;;17.15;4.37;;;;;;;;;;4420740;32;20107;-71
2022/11/22 04:00:15;;;;;;;;;;;;;;;;;;4422935;32;20504;-72
2022/11/22 04:02:41;;;;;;;22.02;4.90;;;;;;;;;;4422116;32;20275;-71
2022/11/22 04:05:06;;;;;;;;;;;;;;;;;;4421842;32;20136;-71
2022/11/22 04:07:31;;;;;;;22.05;3.12;;;;;;;;;;4423427;32;19945;-70
2022/11/22 04:09:56;;;;;;;28.50;5.50;;;;;;;;;;4422636;32;20026;-71
2022/11/22 04:12:21;;;;;;;;;;;;;;;;;;4420398;32;20035;-71
2022/11/22 04:17:39;;;;;;;19.20;3.30;;;;;;;;;;4423202;32;20069;-71
2022/11/22 04:22:57;;;;;;;17.08;2.75;;;;;;;;;;4423258;32;20077;-71
2022/11/22 04:25:22;;;;;;;15.30;3.85;;;;;;;;;;4420776;32;20420;-71
2022/11/22 04:27:47;;;;;;;;;;;;;;;;;;4421988;32;20022;-72
2022/11/22 04:30:13;;;;;;;13.68;3.03;;;;;;;;;;4421361;32;19947;-72
2022/11/22 04:32:47;;;;;;;;;;;;;;;;;;4421815;32;20125;-72
2022/11/22 04:35:13;;;;;;;17.87;3.97;;;;;;;;;;4421480;32;19956;-71
2022/11/22 04:37:38;;;;;;;21.65;4.15;;;;;;;;;;4420970;32;20088;-72
2022/11/22 04:40:04;;;;;;;;;;;;;;;;;;4422904;32;20085;-72
2022/11/22 04:45:13;;;;;;;18.10;3.90;;;;;;;;;;4421232;32;20182;-71
2022/11/22 04:53:05;;;;;;;19.60;4.22;;;;;;;;;;4422122;32;20418;-71
2022/11/22 04:55:31;;;;;;;;;;;;;;;;;;4422553;32;20022;-71
2022/11/22 04:57:56;;;;;;;23.00;4.12;;;;;;;;;;4422117;32;19941;-71
2022/11/22 05:00:21;;;;;;;;;;;;;;;;;;4421605;32;20152;-72
2022/11/22 05:02:46;;;;;;;19.52;3.78;;;;;;;;;;4419781;32;19936;-71
2022/11/22 05:05:11;;;;;;;;;;;;;;;;;;4420088;32;20203;-72
2022/11/22 05:07:36;;;;;;;23.87;6.35;;;;;;;;;;4420895;32;19953;-71
2022/11/22 05:10:01;;;;;;;;;;;;;;;;;;4421645;32;20140;-70
2022/11/22 05:12:27;;;;;;;23.42;4.05;;;;;;;;;;4421030;32;19937;-71
2022/11/22 05:14:52;;;;;;;16.65;4.15;;;;;;;;;;4420977;32;20431;-71
2022/11/22 05:17:17;;;;;;;;;;;;;;;;;;4421231;32;20059;-70
2022/11/22 05:19:42;;;;;;;17.12;3.35;;;;;;;;;;4421020;32;19993;-70
2022/11/22 05:22:07;;;;;;;17.98;4.25;;;;;;;;;;4421704;32;20403;-72
2022/11/22 05:24:32;;;;;;;19.73;4.62;;;;;;;;;;4420105;32;20069;-72
2022/11/22 05:26:58;;;;;;;;;;;;;;;;;;4421827;32;20018;-71
2022/11/22 05:29:23;;;;;;;19.73;3.85;;;;;;;;;;4420567;32;20283;-71
2022/11/22 05:31:48;;;;;;;10.63;3.62;;;;;;;;;;4420764;32;20048;-71
2022/11/22 05:34:13;;;;;;;;;;;;;;;;;;4421084;32;20409;-71
2022/11/22 05:36:38;;;;;;;16.92;3.72;;;;;;;;;;4419094;32;19944;-71
2022/11/22 05:39:03;;;;;;;;;;;;;;;;;;4420010;32;20180;-71
2022/11/22 05:41:28;;;;;;;18.42;5.95;;;;;;;;;;4418779;32;19937;-71
2022/11/22 05:43:54;;;;;;;;;;;;;;;;;;4420337;32;20125;-71
2022/11/22 05:46:20;;;;;;;22.73;5.65;;;;;;;;;;4420031;32;19942;-72
2022/11/22 05:48:46;;;;;;;20.83;6.00;;;;;;;;;;4421530;32;20071;-71
2022/11/22 05:51:11;;;;;;;;;;;;;;;;;;4420208;32;20057;-71
2022/11/22 05:53:37;;;;;;;12.85;4.25;;;;;;;;;;4421678;32;19933;-71
2022/11/22 05:56:02;;;;;;;;;;;;;;;;;;4421537;32;20160;-71
2022/11/22 05:58:27;;;;;;;15.75;4.65;;;;;;;;;;4419627;32;20315;-70
2022/11/22 06:00:52;;;;;;;;;;;;;;;;;;4420367;32;20021;-71
2022/11/22 06:03:17;;;;;;;18.48;4.47;;;;;;;;;;4420185;32;19959;-71
2022/11/22 06:05:42;;;;;;;;;;;;;;;;;;4420523;32;20129;-72
2022/11/22 06:08:07;;;;;;;14.20;4.65;;;;;;;;;;4419481;32;19967;-72
2022/11/22 06:10:35;;;;;;;;;;;;;;;;;;4419443;32;20247;-72
2022/11/22 06:13:01;;;;;;;15.23;4.78;;;;;;;;;;4417496;32;19934;-71
2022/11/22 06:15:26;;;;;;;;;;;;;;;;;;4418851;32;20053;-71
2022/11/22 06:17:51;;;;;;;16.05;5.05;;;;;;;;;;4418003;32;19941;-71
2022/11/22 06:20:16;;;;;;;;;;;;;;;;;;4420353;32;20152;-72
2022/11/22 06:22:41;;;;;;;14.02;5.10;;;;;;;;;;4420057;32;19948;-72
2022/11/22 06:25:06;;;;;;;;;;;;;;;;;;4418311;32;20072;-71
2022/11/22 06:27:32;;;;;;;16.52;6.40;;;;;;;;;;4419891;32;19943;-71
2022/11/22 06:29:57;;;;;;;;;;;;;;;;;;4419962;32;20197;-70
2022/11/22 06:32:22;;;;;;;11.05;5.62;;;;;;;;;;4420247;32;19937;-71
2022/11/22 06:34:47;;;;;;;;;;;;;;;;;;4412707;32;20150;-70
2022/11/22 06:37:15;;;;;;;17.17;6.03;;;;;;;;;;4408724;32;19941;-72
2022/11/22 06:39:41;;;;;;;15.60;5.80;;;;;;;;;;4404797;32;20126;-71
2022/11/22 06:42:06;;;;;;;;;;;;;;;;;;4403203;32;20376;-72
2022/11/22 06:44:31;;;;;;;15.65;5.93;;;;;;;;;;4403406;32;19992;-72
2022/11/22 06:46:56;;;;;;;18.80;6.22;;;;;;;;;;4404698;32;20076;-73
2022/11/22 06:49:21;;;;;;;;;;;;;;;;;;4414075;32;20388;-71
2022/11/22 06:51:46;;;;;;;17.65;4.97;;;;;;;;;;4419354;32;19983;-72
2022/11/22 06:54:11;;;;;;;18.74;5.14;;;;;;;;;;4419524;32;20029;-72
2022/11/22 06:56:36;;;;;;;;;;;;;;;;;;4420939;32;20080;-71
2022/11/22 06:59:03;;;;;;;12.82;4.80;;;;;;;;;;4418505;32;19986;-72
2022/11/22 07:01:29;;;;;;;24.77;4.65;;;;;;;;;;4418687;32;20138;-70
2022/11/22 07:03:57;;;;;;;;;;;;;;;;;;4418670;32;20431;-71
2022/11/22 07:06:23;;;;;;;14.25;4.82;;;;;;;;;;4418808;32;19941;-72
2022/11/22 07:08:48;;;;;;;;;;;;;;;;;;4418480;32;20074;-73
2022/11/22 07:11:14;;;;;;;8.50;4.00;;;;;;;;;;4418677;32;20019;-73
2022/11/22 07:13:40;;;;;;;14.25;5.07;;;;;;;;;;4417730;32;20064;-71
2022/11/22 07:16:05;;;;;;;;;;;;;;;;;;4416261;32;20101;-72
2022/11/22 07:18:31;;;;;;;10.95;4.10;;;;;;;;;;4418293;32;19941;-71
2022/11/22 07:20:56;;;;;;;;;;;;;;;;;;4415464;32;20089;-72
2022/11/22 07:23:21;;;;;;;16.30;4.25;;;;;;;;;;4424605;32;20291;-73
2022/11/22 07:25:46;;;;;;;16.50;4.65;;;;;;;;;;4433853;32;20072;-72
2022/11/22 07:28:12;;;;;;;;;;;;;;;;;;4417884;32;20449;-72
2022/11/22 07:30:37;;;;;;;12.00;5.03;;;;;;;;;;4418406;32;19941;-71
2022/11/22 07:33:02;;;;;;;;;;;;;;;;;;4417378;32;20145;-71
2022/11/22 07:35:27;;;;;;;14.05;5.28;;;;;;;;;;4418461;32;19952;-72
2022/11/22 07:37:55;;;;;;;15.27;5.20;;;;;;;;;;4416878;32;20043;-73
2022/11/22 07:40:21;;;;;;;14.10;5.28;;;;;;;;;;4417553;32;20359;-72
2022/11/22 07:42:46;;;;;;;;;;;;;;;;;;4418060;32;20105;-71
2022/11/22 07:45:11;;;;;;;14.77;5.75;;;;;;;;;;4418258;32;19946;-71
2022/11/22 07:47:36;;;;;;;16.58;5.40;;;;;;;;;;4418153;32;20070;-72
2022/11/22 07:50:01;;;;;;;;;;;;;;;;;;4422790;32;20022;-71
2022/11/22 07:52:26;;;;;;;15.50;5.53;;;;;;;;;;4422875;32;19940;-72
2022/11/22 07:54:51;;;;;;;11.82;4.80;;;;;;;;;;4422089;32;20427;-72
2022/11/22 07:57:17;;;;;;;;;;;;;;;;;;4420552;32;20046;-71
2022/11/22 07:59:42;;;;;;;11.90;5.03;;;;;;;;;;4421419;32;20279;-70
2022/11/22 08:02:07;;;;;;;;;;;;;;;;;;4421039;32;20141;-72
2022/11/22 08:04:32;;;;;;;12.57;4.72;;;;;;;;;;4420610;32;19951;-72
2022/11/22 08:06:57;;;;;;;10.40;4.90;;;;;;;;;;4423511;32;20041;-71
2022/11/22 08:09:22;;;;;;;;;;;;;;;;;;4421585;32;20156;-71
2022/11/22 08:11:48;;;;;;;8.93;4.37;;;;;;;;;;4419318;32;19958;-71
2022/11/22 08:14:13;;;;;;;;;;;;;;;;;;4423019;32;20627;-71
2022/11/22 08:16:38;;;;;;;15.95;3.78;;;;;;;;;;4422767;32;19948;-70
2022/11/22 08:19:03;;;;;;;11.50;4.15;;;;;;;;;;4421167;32;20069;-71
2022/11/22 08:21:28;;;;;;;;;;;;;;;;;;4420037;32;20030;-72
2022/11/22 08:23:56;;;;;;;10.85;3.90;;;;;;;;;;4414552;32;20843;-72
2022/11/22 08:26:22;;;;;;;11.73;3.87;;;;;;;;;;4409835;32;20122;-72
2022/11/22 08:28:47;;;;;;;;;;;;;;;;;;4414847;32;20026;-71
2022/11/22 08:31:14;;;;;;;8.50;3.72;;;;;;;;;;4412070;32;19968;-70
2022/11/22 08:33:39;;;;;;;16.27;4.62;;;;;;;;;;4412136;32;20103;-71
2022/11/22 08:36:04;;;;;;;;;;;;;;;;;;4417092;32;20434;-71
2022/11/22 08:38:29;;;;;;;16.65;5.53;;;;;;;;;;4421559;32;20326;-72
2022/11/22 08:40:54;;;;;;;16.45;5.80;;;;;;;;;;4419911;32;20026;-72
2022/11/22 08:43:20;;;;;;;;;;;;;;;;;;4420765;32;20418;-71
2022/11/22 08:45:47;;;;;;;10.30;4.78;;;;;;;;;;4422336;32;19975;-71
2022/11/22 08:48:12;;;;;;;14.65;4.85;;;;;;;;;;4420486;32;20022;-71
2022/11/22 08:50:37;;;;;;;;;;;;;;;;;;4418934;32;20379;-72
2022/11/22 08:53:02;;;;;;;12.93;5.55;;;;;;;;;;4417011;32;19948;-72
2022/11/22 08:55:27;;;;;;;;;;;;;;;;;;4422131;32;20034;-73
2022/11/22 08:57:56;;;;;;;15.90;6.15;;;;;;;;;;4421864;32;19937;-72
2022/11/22 09:00:21;;;;;;;11.43;5.25;;;;;;;;;;4420966;32;20502;-71
2022/11/22 09:02:47;;;;;;;;;;;;;;;;;;4423249;32;20026;-71
2022/11/22 09:05:12;;;;;;;11.48;4.30;;;;;;;;;;4421119;32;19998;-71
2022/11/22 09:07:37;;;;;;;13.65;4.57;;;;;;;;;;4421870;32;20026;-71
2022/11/22 09:10:04;;;;;;;;;;;;;;;;;;4421647;32;20049;-71
2022/11/22 09:12:29;;;;;;;12.55;3.85;;;;;;;;;;4421394;32;19961;-71
2022/11/22 09:14:54;;;;;;;;;;;;;;;;;;4421393;32;20021;-72
2022/11/22 09:17:20;;;;;;;9.30;4.68;;;;;;;;;;4420630;32;19992;-73
2022/11/22 09:19:45;;;;;;;;;;;;;;;;;;4422099;32;20133;-71
2022/11/22 09:22:11;;;;;;;24.58;5.12;;;;;;;;;;4421269;32;19990;-71
2022/11/22 09:24:36;;;;;;;;;;;;;;;;;;4420541;32;20174;-72
2022/11/22 09:27:01;;;;;;;13.85;3.90;;;;;;;;;;4420283;32;19937;-71
2022/11/22 09:29:26;;;;;;;;;;;;;;;;;;4420890;32;20079;-70
2022/11/22 09:31:51;;;;;;;16.85;4.47;;;;;;;;;;4420723;32;20019;-71
2022/11/22 09:34:16;;;;;;;;;;;;;;;;;;4420950;32;20022;-71
2022/11/22 09:36:42;;;;;;;8.98;4.22;;;;;;;;;;4420776;32;19941;-71
2022/11/22 09:39:07;;;;;;;10.60;4.30;;;;;;;;;;4420212;32;20109;-72
2022/11/22 09:41:32;;;;;;;;;;;;;;;;;;4421287;32;20026;-71
2022/11/22 09:44:10;;;;;;;8.20;3.70;;;;;;;;;;4420954;32;19948;-70
2022/11/22 09:46:47;;;;;;;13.38;4.45;;;;;;;;;;4421156;32;20057;-71
2022/11/22 09:49:21;;;;;;;10.88;4.10;;;;;;;;;;4420185;32;20475;-72
2022/11/22 09:51:52;;;;;;;15.52;4.45;;;;;;;;;;4419132;32;20370;-72
2022/11/22 09:54:25;;;;;;;15.95;4.12;;;;;;;;;;4420759;32;20097;-72
2022/11/22 09:56:51;;;;;;;7.37;3.33;;;;;;;;;;4420701;32;20026;-71
2022/11/22 09:59:16;;;;;;;10.60;3.58;;;;;;;;;;4420367;32;20022;-71
2022/11/22 10:01:42;;;;;;;;;;;;;;;;;;4421662;32;20384;-71
2022/11/22 10:04:09;;;;;;;12.52;3.50;;;;;;;;;;4420138;32;19936;-71
2022/11/22 10:06:37;;;;;;;14.55;4.15;;;;;;;;;;4421208;32;20129;-72
2022/11/22 10:09:09;;;;;;;9.27;3.20;;;;;;;;;;4419235;32;20030;-72
2022/11/22 10:11:37;;;;;;;10.32;3.70;;;;;;;;;;4419954;32;20057;-71
2022/11/22 10:14:21;;;;;;;10.80;4.00;;;;;;;;;;4420553;32;20459;-71
2022/11/22 10:16:50;;;;;;;9.93;4.28;;;;;;;;;;4418543;32;20102;-72
2022/11/22 10:19:17;;;;;;;9.70;3.53;;;;;;;;;;4419219;32;20056;-71
2022/11/22 10:21:46;;;;;;;7.10;3.50;;;;;;;;;;4420056;32;20034;-71
2022/11/22 10:24:13;;;;;;;16.20;4.68;;;;;;;;;;4418665;32;20067;-72
2022/11/22 10:26:39;;;;;;;9.48;3.90;;;;;;;;;;4419533;32;20025;-71
2022/11/22 10:29:07;;;;;;;12.52;3.60;;;;;;;;;;4420684;32;20395;-72
2022/11/22 10:31:40;;;;;;;8.88;4.12;;;;;;;;;;4419738;32;20018;-72
2022/11/22 10:34:05;;;;;;;13.80;3.78;;;;;;;;;;4420318;32;20030;-71
2022/11/22 10:36:30;;;;;;;;;;;;;;;;;;4420828;32;20033;-71
2022/11/22 10:39:01;;;;;;;7.90;3.05;;;;;;;;;;4418359;32;19944;-71
2022/11/22 10:41:33;;;;;;;11.35;3.55;;;;;;;;;;4421795;32;20129;-72
2022/11/22 10:44:06;;;;;;;8.18;3.40;;;;;;;;;;4418656;32;20026;-71
2022/11/22 10:46:34;;;;;;;15.32;3.33;;;;;;;;;;4421706;32;20430;-71
2022/11/22 10:49:11;;;;;;;9.88;3.42;;;;;;;;;;4419493;32;20079;-71
2022/11/22 10:51:45;;;;;;;21.12;3.65;;;;;;;;;;4420729;32;20040;-71
2022/11/22 10:54:17;;;;;;;6.55;3.37;;;;;;;;;;4419706;32;20091;-72
2022/11/22 10:56:54;;;;;;;9.40;3.42;;;;;;;;;;4419778;32;20159;-72
2022/11/22 10:59:33;;;;;;;10.32;3.03;;;;;;;;;;4420563;32;20026;-71
2022/11/22 11:01:58;;;;;;;6.85;2.87;;;;;;;;;;4418281;32;20105;-71
2022/11/22 11:04:23;;;;;;;;;;;;;;;;;;4419612;32;20094;-72
2022/11/22 11:06:52;;;;;;;8.45;3.15;;;;;;;;;;4419429;32;19933;-72
2022/11/22 11:09:36;;;;;;;11.25;3.78;;;;;;;;;;4419272;32;20201;-71
2022/11/22 11:12:05;;;;;;;7.97;3.03;;;;;;;;;;4419702;32;20042;-72
2022/11/22 11:14:34;;;;;;;15.13;3.20;;;;;;;;;;4420465;32;20022;-72
2022/11/22 11:16:59;;;;;;;12.68;2.97;;;;;;;;;;4420343;32;20037;-72
2022/11/22 11:19:25;;;;;;;;;;;;;;;;;;4419871;32;20053;-72
2022/11/22 11:21:59;;;;;;;9.43;3.92;;;;;;;;;;4420956;32;19967;-72
2022/11/22 11:24:26;;;;;;;10.05;4.35;;;;;;;;;;4422681;32;20191;-71
2022/11/22 11:26:53;;;;;;;14.73;3.30;;;;;;;;;;4421610;32;20026;-71
2022/11/22 11:29:18;;;;;;;9.27;2.83;;;;;;;;;;4422647;32;20038;-71
2022/11/22 11:31:43;;;;;;;;;;;;;;;;;;4423438;32;20050;-73
2022/11/22 11:34:22;;;;;;;13.07;3.40;;;;;;;;;;4422094;32;19953;-72
2022/11/22 11:36:48;;;;;;;11.70;3.83;;;;;;;;;;4422894;32;20029;-71
2022/11/22 11:39:20;;;;;;;10.45;3.75;;;;;;;;;;4422440;32;20042;-71
2022/11/22 11:41:46;;;;;;;11.02;3.60;;;;;;;;;;4422286;32;20453;-72
2022/11/22 11:44:11;;;;;;;;;;;;;;;;;;4433990;32;20046;-70
2022/11/22 11:46:39;;;;;;;9.35;3.28;;;;;;;;;;4422523;32;19982;-72
2022/11/22 11:49:09;;;;;;;9.90;4.28;;;;;;;;;;4422374;32;20060;-70
2022/11/22 11:51:36;;;;;;;11.40;3.95;;;;;;;;;;4422364;32;20065;-71
2022/11/22 11:54:04;;;;;;;10.45;4.40;;;;;;;;;;4422761;32;20057;-71
2022/11/22 11:56:41;;;;;;;9.05;4.22;;;;;;;;;;4421405;32;20030;-71
2022/11/22 11:59:10;;;;;;;11.90;2.95;;;;;;;;;;4422194;32;20021;-71
2022/11/22 12:01:36;;;;;;;7.93;3.50;;;;;;;;;;4420982;32;20059;-73
2022/11/22 12:04:01;;;;;;;;;;;;;;;;;;4421689;32;20102;-72
2022/11/22 12:06:28;;;;;;;10.98;4.37;;;;;;;;;;4414573;32;19968;-71
2022/11/22 12:08:53;;;;;;;22.13;5.10;;;;;;;;;;4407329;32;20130;-71
2022/11/22 12:11:18;;;;;;;;;;;;;;;;;;4406745;32;20483;-71
2022/11/22 12:13:44;;;;;;;11.88;3.30;;;;;;;;;;4406688;32;19957;-72
2022/11/22 12:16:18;;;;;;;4.55;3.37;;;;;;;;;;4405389;32;20092;-72
2022/11/22 12:18:51;;;;;;;7.43;2.85;;;;;;;;;;4408053;32;20117;-71
2022/11/22 12:21:16;;;;;;;16.73;3.80;;;;;;;;;;4405759;32;20318;-71
2022/11/22 12:23:41;;;;;;;;;;;;;;;;;;4406605;32;20069;-72
2022/11/22 12:26:06;;;;;;;8.00;3.50;;;;;;;;;;4408146;32;19937;-71
2022/11/22 12:28:31;;;;;;;;;;;;;;;;;;4423380;32;20063;-71
2022/11/22 12:30:56;;;;;;;9.52;3.03;;;;;;;;;;4419944;32;20319;-71
2022/11/22 12:33:31;;;;;;;9.88;2.50;;;;;;;;;;4421392;32;20022;-71
2022/11/22 12:35:56;;;;;;;7.15;2.60;;;;;;;;;;4421993;32;20136;-71
2022/11/22 12:38:22;;;;;;;;;;;;;;;;;;4421461;32;20042;-71
2022/11/22 12:40:49;;;;;;;5.40;2.83;;;;;;;;;;4420785;32;19933;-71
2022/11/22 12:43:14;;;;;;;23.15;5.18;;;;;;;;;;4420819;32;20083;-72
2022/11/22 12:45:42;;;;;;;12.82;4.43;;;;;;;;;;4419869;32;20034;-71
2022/11/22 12:48:13;;;;;;;4.70;2.90;;;;;;;;;;4419652;32;20030;-69
2022/11/22 12:50:41;;;;;;;12.05;3.37;;;;;;;;;;4421962;32;20134;-70
2022/11/22 12:53:12;;;;;;;8.50;3.65;;;;;;;;;;4420316;32;20176;-71
2022/11/22 12:55:46;;;;;;;6.05;2.70;;;;;;;;;;4421719;32;20144;-72
2022/11/22 12:58:20;;;;;;;9.20;2.90;;;;;;;;;;4419615;32;20473;-72
2022/11/22 13:01:04;;;;;;;5.15;3.05;;;;;;;;;;4421234;32;20463;-71
2022/11/22 13:03:32;;;;;;;10.77;3.33;;;;;;;;;;4419515;32;20087;-72
2022/11/22 13:05:58;;;;;;;7.78;2.95;;;;;;;;;;4421307;32;20400;-71
2022/11/22 13:08:34;;;;;;;34.65;5.32;;;;;;;;;;4420983;32;20093;-71
2022/11/22 13:11:15;;;;;;;7.90;2.70;;;;;;;;;;4422104;32;20048;-72
2022/11/22 13:13:42;;;;;;;8.60;2.90;;;;;;;;;;4420637;32;20047;-72
2022/11/22 13:16:09;;;;;;;5.93;2.50;;;;;;;;;;4420822;32;20525;-72
2022/11/22 13:18:37;;;;;;;6.78;2.90;;;;;;;;;;4419486;32;20073;-72
2022/11/22 13:21:18;;;;;;;4.80;2.72;;;;;;;;;;4419743;32;20416;-72
2022/11/22 13:23:43;;;;;;;4.28;2.55;;;;;;;;;;4421008;32;20147;-72
2022/11/22 13:26:08;;;;;;;;;;;;;;;;;;4421465;32;20026;-72
2022/11/22 13:28:35;;;;;;;3.62;1.85;;;;;;;;;;4420999;32;19968;-72
2022/11/22 13:31:09;;;;;;;7.18;2.55;;;;;;;;;;4421162;32;20079;-71
2022/11/22 13:33:39;;;;;;;14.55;3.70;;;;;;;;;;4421809;32;20120;-71
2022/11/22 13:36:23;;;;;;;10.20;2.33;;;;;;;;;;4422335;32;20068;-72
2022/11/22 13:38:49;;;;;;;5.70;2.50;;;;;;;;;;4420014;32;20037;-71
2022/11/22 13:41:23;;;;;;;12.07;3.33;;;;;;;;;;4420687;32;20401;-72
2022/11/22 13:43:49;;;;;;;32.50;6.53;;;;;;;;;;4420273;32;20028;-70
2022/11/22 13:46:44;;;;;;;4.43;2.30;;;;;;;;;;4419991;32;20068;-72
2022/11/22 13:49:13;;;;;;;4.40;2.12;;;;;;;;;;4366397;32;20047;-71
2022/11/22 13:51:50;;;;;;;5.87;2.75;;;;;;;;;;4421180;32;20064;-71
2022/11/22 13:54:45;;;;;;;7.07;2.33;;;;;;;;;;4421430;32;20090;-72
2022/11/22 13:57:25;;;;;;;13.38;4.30;;;;;;;;;;4405611;32;20367;-72
2022/11/22 14:00:09;;;;;;;5.37;2.28;;;;;;;;;;4405480;32;20026;-73
2022/11/22 14:02:34;;;;;;;5.62;2.60;;;;;;;;;;4412162;32;20476;-72
2022/11/22 14:04:59;;;;;;;;;;;;;;;;;;4419760;32;20025;-71
2022/11/22 14:07:27;;;;;;;12.07;2.90;;;;;;;;;;4421353;32;19941;-71
2022/11/22 14:09:54;;;;;;;9.68;3.10;;;;;;;;;;4420758;32;20048;-72
2022/11/22 14:12:29;;;;;;;3.53;2.03;;;;;;;;;;4421789;32;20094;-70
2022/11/22 14:15:13;;;;;;;9.68;2.70;;;;;;;;;;4418691;32;20211;-71
2022/11/22 14:17:56;;;;;;;2.90;2.17;;;;;;;;;;4420204;32;20064;-71
2022/11/22 14:20:40;;;;;;;6.00;2.50;;;;;;;;;;4420322;32;20096;-71
2022/11/22 14:23:37;;;;;;;7.62;2.12;;;;;;;;;;4420180;32;20018;-73
2022/11/22 14:26:02;;;;;;;;;;;;;;;;;;4418305;32;20049;-73
2022/11/22 14:28:46;;;;;;;4.68;2.30;;;;;;;;;;4405018;32;19952;-69
2022/11/22 14:31:26;;;;;;;4.47;2.20;;;;;;;;;;4407511;32;20065;-68
2022/11/22 14:34:10;;;;;;;6.80;3.10;;;;;;;;;;4420508;32;20076;-69
2022/11/22 14:36:35;;;;;;;10.85;4.43;;;;;;;;;;4418453;32;20479;-68
2022/11/22 14:39:00;;;;;;;;;;;;;;;;;;4419722;32;20187;-68
2022/11/22 14:41:28;;;;;;;4.62;1.90;;;;;;;;;;4419167;32;19997;-68
2022/11/22 14:44:07;;;;;;;4.72;2.70;;;;;;;;;;4419699;32;20090;-68
2022/11/22 14:46:39;;;;;;;2.58;1.98;;;;;;;;;;4419362;32;20034;-69
2022/11/22 14:49:09;;;;;;;6.47;2.50;;;;;;;;;;4419937;32;20461;-68
2022/11/22 14:51:35;;;;;;;6.22;2.20;;;;;;;;;;4420843;32;20403;-68
2022/11/22 14:54:00;;;;;;;;;;;;;;;;;;4419960;32;20049;-69
2022/11/22 14:56:31;;;;;;;5.10;2.28;;;;;;;;;;4414198;32;19953;-69
2022/11/22 14:58:59;;;;;;;14.68;3.85;;;;;;;;;;4405302;32;20150;-69
2022/11/22 15:01:24;;;;;;;7.05;2.35;;;;;;;;;;4406496;32;20089;-69
2022/11/22 15:03:49;;;;;;;;;;;;;;;;;;4420070;32;20030;-68
2022/11/22 15:06:17;;;;;;;3.87;2.30;;;;;;;;;;4417006;32;20007;-69
2022/11/22 15:08:55;;;;;;;9.88;3.20;;;;;;;;;;4416342;32;20138;-69
2022/11/22 15:11:29;;;;;;;5.00;2.45;;;;;;;;;;4419123;32;20018;-68
2022/11/22 15:14:06;;;;;;;8.07;2.47;;;;;;;;;;4417704;32;20431;-68
2022/11/22 15:16:32;;;;;;;4.05;2.20;;;;;;;;;;4419148;32;20088;-69
2022/11/22 15:19:01;;;;;;;;;;;;;;;;;;4420949;32;20022;-69
2022/11/22 15:21:26;;;;;;;5.72;2.33;;;;;;;;;;4418560;32;19930;-68
2022/11/22 15:23:51;;;;;;;;;;;;;;;;;;4420259;32;20057;-68
2022/11/22 15:26:17;;;;;;;5.37;3.10;;;;;;;;;;4419023;32;19995;-68